Washburn, IA (50706)

5:34 PM CDT on August 29, 2015 (GMT -0500)
Lanehaven Farms, Inc. | | Change Station
CLOSE
Current Station
Personal Weather Station
Location: Waterloo, IA
Elevation: 950 ft
Nearby Weather Stations
Active Advisory: Flood Warning Active Notice: Record Report

Elev 950 ft 42.41 °N, 92.34 °W | Updated 4 minutes ago

Overcast
Overcast
71.1 °F
Feels Like 70 °F
N
0.0
Wind Variable Wind from NE
Gusts 0.0 mph

Today
High -- | Low -- °F
--% Chance of Precip.
Yesterday
High -- | Low -- °F
Precip. -- in
6:30 AM 7:48 PM
Full, 100% visible
Pressure 30.02 in
Visibility 10.0 miles
Clouds Overcast 2200 ft
Heat Index 70 °F
Dew Point 66 °F
Humidity 84%
Rainfall 0.02 in
Snow Depth Not available.
UV 1 out of 12
Pollen 8.00 out of 12
Air Quality Not available.
Flu Activity Not available.
METAR KALO 292154Z 07004KT 10SM OVC022 22/17 A3003 RMK AO2 SLP165 T02220172
Pressure 30.02 in
Visibility 10.0 miles
Clouds Overcast 2200 ft
Heat Index 70 °F
Dew Point 66 °F
Humidity 84%
Rainfall 0.02 in
Snow Depth Not available.
UV 1 out of 12
Pollen 8.00 out of 12
Air Quality Not available.
Flu Activity Not available.
METAR KALO 292154Z 07004KT 10SM OVC022 22/17 A3003 RMK AO2 SLP165 T02220172

10-Day Weather Forecast

×

Almanac

Astronomy

Aug. 29, 2015 Rise Set
Actual Time
Civil Twilight
Nautical Twilight
Astronomical Twilight
Moon
Length of Visible Light
Length of Day
Tomorrow will be .
, % of the Moon is Illuminated

Today's Extremes

State Highs State Lows

Community

WunderPhotos

Upload Photos

1,850,775 photos uploaded!

WunderBlogs® & News

Nearby

Air Quality

  Air Quality AQ Index Pollutant
Not available.

Snow Depth

Station Depth Elevation

Earthquake Activity

City Distance Mag. Time & Date
Minimum magnitude displayed is 2.5.

Coastal Water Temperatures

Place Temperature

Stations

Nearby Weather Stations

Station Location Temp. Windchill Dew Point Humidity Wind Precip. Elev Updated Type
                   
Flood Warning
Statement as of 1:30 PM CDT on August 29, 2015

... Flood Warning now in effect until Monday morning...

The Flood Warning continues for
the Black Hawk creek at Hudson... or from the Black Hawk-Grundy
County line... to the Cedar River in Waterloo.
* Until Monday morning.
* At 11:45 am Saturday the stage was 11.2 feet... or 2.8 feet below
flood stage.
* Flood stage is 14.0 feet.
* No flooding is occurring and moderate flooding is forecast.
* Forecast... rise to flood stage after midnight tonight. Continue
rising to 15.5 feet... or 1.5 feet above flood stage... Sunday
afternoon. Go below flood stage Monday morning.
* Impact... at 15.5 feet... ranchero Road in Waterloo is under water.


Lat... Lon 4248 9228 4235 9247 4235 9254 4242 9254
      4253 9238